Time;durP1;ratioP1;P1;durP2;ratioP2;P2;SDS_P1;SDS_P2;PMS_P1;PMS_P2;Temp;Humidity;BMP_temperature;BMP_pressure;BME280_temperature;BME280_humidity;BME280_pressure;Samples;Min_cycle;Max_cycle;Signal;HPM_P1;HPM_P2
2022/09/02 00:00:42;;;;;;;0.32;0.32;;;14.20;99.90;;;;;;4987327;28;20030;-74
2022/09/02 00:03:07;;;;;;;0.60;0.60;;;13.90;99.90;;;;;;4987398;28;20469;-75
2022/09/02 00:05:33;;;;;;;0.40;0.40;;;13.90;99.90;;;;;;4984836;28;20038;-75
2022/09/02 00:07:58;;;;;;;0.40;0.40;;;13.90;99.90;;;;;;4967899;28;20031;-74
2022/09/02 00:10:24;;;;;;;0.30;0.30;;;13.90;99.90;;;;;;4968188;28;20031;-75
2022/09/02 00:12:50;;;;;;;0.53;0.53;;;13.90;99.90;;;;;;4978198;28;20513;-75
2022/09/02 00:15:15;;;;;;;3.20;1.90;;;13.90;99.90;;;;;;4989440;28;20390;-75
2022/09/02 00:17:41;;;;;;;0.40;0.40;;;14.00;99.90;;;;;;4990813;28;20042;-75
2022/09/02 00:20:07;;;;;;;0.33;0.33;;;14.00;99.90;;;;;;4990771;28;20026;-75
2022/09/02 00:22:33;;;;;;;0.30;0.30;;;14.10;99.90;;;;;;4972754;28;20041;-75
2022/09/02 00:24:58;;;;;;;0.40;0.40;;;14.20;99.90;;;;;;4971935;28;20035;-75
2022/09/02 00:27:24;;;;;;;0.30;0.30;;;14.20;99.90;;;;;;4972634;28;20766;-75
2022/09/02 00:29:49;;;;;;;0.37;0.37;;;14.30;99.90;;;;;;4989250;28;20450;-74
2022/09/02 00:32:15;;;;;;;1.57;1.37;;;14.30;99.90;;;;;;4990587;28;20026;-75
2022/09/02 00:34:40;;;;;;;0.30;0.30;;;14.30;99.90;;;;;;4980400;28;20026;-73
2022/09/02 00:37:06;;;;;;;0.50;0.50;;;14.30;99.90;;;;;;4971121;28;20033;-75
2022/09/02 00:39:32;;;;;;;0.50;0.50;;;14.30;99.90;;;;;;4971505;28;20552;-75
2022/09/02 00:41:57;;;;;;;0.60;0.60;;;14.30;99.90;;;;;;4970836;28;20062;-75
2022/09/02 00:44:23;;;;;;;1.60;1.50;;;14.20;99.90;;;;;;4984075;28;20047;-75
2022/09/02 00:46:49;;;;;;;0.60;0.60;;;14.10;99.90;;;;;;4988812;28;20065;-75
2022/09/02 00:49:14;;;;;;;0.43;0.43;;;14.00;99.90;;;;;;4982361;28;20039;-74
2022/09/02 00:51:48;;;;;;;0.87;0.77;;;13.90;99.90;;;;;;4970759;28;20026;-75
2022/09/02 00:54:15;;;;;;;3.30;1.67;;;13.90;99.90;;;;;;4980325;28;20365;-74
2022/09/02 00:56:42;;;;;;;;;;;14.00;99.90;;;;;;4990465;28;20102;-75
2022/09/02 00:59:12;;;;;;;0.47;0.47;;;14.00;99.90;;;;;;4976861;28;19915;-74
2022/09/02 01:01:38;;;;;;;3.63;1.15;;;14.00;99.90;;;;;;4982210;28;20034;-75
2022/09/02 01:04:03;;;;;;;0.83;0.83;;;14.00;99.90;;;;;;4990335;28;20038;-75
2022/09/02 01:06:29;;;;;;;1.50;1.13;;;14.00;99.90;;;;;;4988647;28;20084;-75
2022/09/02 01:09:01;;;;;;;0.40;0.40;;;14.00;99.90;;;;;;4980054;28;20039;-74
2022/09/02 01:11:36;;;;;;;0.63;0.60;;;13.80;99.90;;;;;;4970559;28;20374;-75
2022/09/02 01:14:02;;;;;;;0.40;0.40;;;13.90;99.90;;;;;;4972439;28;20038;-75
2022/09/02 01:16:36;;;;;;;0.40;0.40;;;13.80;99.90;;;;;;4969154;28;20431;-75
2022/09/02 01:19:09;;;;;;;0.30;0.30;;;13.80;99.90;;;;;;4970802;28;20038;-75
2022/09/02 01:21:35;;;;;;;1.25;1.20;;;13.80;99.90;;;;;;4970983;28;20149;-74
2022/09/02 01:24:01;;;;;;;0.93;0.90;;;13.80;99.90;;;;;;4987759;28;20454;-75
2022/09/02 01:26:26;;;;;;;0.40;0.40;;;13.80;99.90;;;;;;4988390;28;20026;-74
2022/09/02 01:28:52;;;;;;;0.60;0.60;;;13.80;99.90;;;;;;4980583;28;20501;-75
2022/09/02 01:31:17;;;;;;;0.30;0.30;;;13.70;99.90;;;;;;4968813;28;20027;-75
2022/09/02 01:33:43;;;;;;;0.77;0.77;;;13.70;99.90;;;;;;4970374;28;20558;-75
2022/09/02 01:36:08;;;;;;;0.47;0.47;;;13.80;99.90;;;;;;4970149;28;20027;-75
2022/09/02 01:38:34;;;;;;;0.67;0.63;;;13.70;99.90;;;;;;4999861;28;20054;-75
2022/09/02 01:41:00;;;;;;;0.30;0.30;;;13.60;99.90;;;;;;5007942;28;20488;-74
2022/09/02 01:43:28;;;;;;;0.73;0.73;;;13.50;99.90;;;;;;5007284;28;20046;-75
2022/09/02 01:45:56;;;;;;;0.30;0.30;;;13.50;99.90;;;;;;5008932;28;20064;-75
2022/09/02 01:48:22;;;;;;;0.68;0.68;;;13.60;99.90;;;;;;5008682;28;20101;-75
2022/09/02 01:50:53;;;;;;;0.50;0.50;;;13.60;99.90;;;;;;4992855;28;20027;-75
2022/09/02 01:53:19;;;;;;;0.73;0.65;;;13.60;99.90;;;;;;4989249;28;20042;-75
2022/09/02 01:55:44;;;;;;;0.80;0.73;;;13.60;99.90;;;;;;5005828;28;20388;-74
2022/09/02 01:58:10;;;;;;;2.80;2.57;;;13.60;99.90;;;;;;5009138;28;20030;-74
2022/09/02 02:00:35;;;;;;;1.43;1.00;;;13.60;99.90;;;;;;4991149;28;20061;-75
2022/09/02 02:03:01;;;;;;;0.60;0.60;;;13.50;99.90;;;;;;4989318;28;20395;-74
2022/09/02 02:05:28;;;;;;;0.40;0.40;;;13.40;99.90;;;;;;4999903;28;20030;-74
2022/09/02 02:07:54;;;;;;;0.50;0.50;;;13.50;99.90;;;;;;5008684;28;20037;-74
2022/09/02 02:10:21;;;;;;;0.40;0.40;;;13.50;99.90;;;;;;5008626;28;20034;-75
2022/09/02 02:12:46;;;;;;;0.60;0.60;;;13.50;99.90;;;;;;5007139;28;20128;-75
2022/09/02 02:15:16;;;;;;;0.30;0.30;;;13.60;99.90;;;;;;4989305;28;20113;-74
2022/09/02 02:17:41;;;;;;;0.93;0.93;;;13.60;99.90;;;;;;4989273;28;20450;-74
2022/09/02 02:20:09;;;;;;;1.10;1.07;;;13.60;99.90;;;;;;4989227;28;20041;-75
2022/09/02 02:22:35;;;;;;;0.68;0.68;;;13.70;99.90;;;;;;4987452;28;20042;-74
2022/09/02 02:25:01;;;;;;;0.77;0.77;;;13.60;99.90;;;;;;5000571;28;20038;-74
2022/09/02 02:27:27;;;;;;;0.40;0.40;;;13.70;99.90;;;;;;5006587;28;20042;-74
2022/09/02 02:29:52;;;;;;;1.23;1.13;;;13.70;99.90;;;;;;4993375;28;20030;-74
2022/09/02 02:32:18;;;;;;;1.43;1.33;;;13.70;99.90;;;;;;4987407;28;20022;-74
2022/09/02 02:34:45;;;;;;;0.40;0.40;;;13.70;99.90;;;;;;4988459;28;20030;-75
2022/09/02 02:37:11;;;;;;;0.30;0.30;;;13.70;99.90;;;;;;4997080;28;20162;-75
2022/09/02 02:39:39;;;;;;;0.50;0.50;;;13.60;99.90;;;;;;5006756;28;20405;-75
2022/09/02 02:42:05;;;;;;;0.30;0.30;;;13.60;99.90;;;;;;5008369;28;20220;-75
2022/09/02 02:44:31;;;;;;;0.50;0.50;;;13.50;99.90;;;;;;4998023;28;20383;-75
2022/09/02 02:46:57;;;;;;;0.53;0.53;;;13.50;99.90;;;;;;4988547;28;20151;-75
2022/09/02 02:49:22;;;;;;;0.43;0.43;;;13.50;99.90;;;;;;4989029;28;20524;-75
2022/09/02 02:51:48;;;;;;;0.50;0.50;;;13.40;99.90;;;;;;4988398;28;20042;-75
2022/09/02 02:54:15;;;;;;;0.63;0.63;;;13.20;99.90;;;;;;4992145;28;20497;-75
2022/09/02 02:56:41;;;;;;;0.80;0.73;;;13.10;99.90;;;;;;5005186;28;20064;-75
2022/09/02 02:59:06;;;;;;;2.00;0.90;;;13.00;99.90;;;;;;5002076;28;20483;-75
2022/09/02 03:01:32;;;;;;;6.73;2.10;;;12.90;99.90;;;;;;4986907;28;20449;-75
2022/09/02 03:03:58;;;;;;;0.40;0.40;;;12.80;99.90;;;;;;4988496;28;20218;-76
2022/09/02 03:06:24;;;;;;;0.70;0.70;;;12.80;99.90;;;;;;5004663;28;20125;-76
2022/09/02 03:08:52;;;;;;;1.33;1.23;;;12.80;99.90;;;;;;5007899;28;20034;-75
2022/09/02 03:11:19;;;;;;;0.43;0.43;;;12.80;99.90;;;;;;5006728;28;20287;-75
2022/09/02 03:13:45;;;;;;;0.73;0.73;;;12.80;99.90;;;;;;5001250;28;20036;-75
2022/09/02 03:16:10;;;;;;;0.50;0.50;;;12.80;99.90;;;;;;4986792;28;20026;-75
2022/09/02 03:18:36;;;;;;;0.60;0.60;;;12.90;99.90;;;;;;4988433;28;20070;-73
2022/09/02 03:21:07;;;;;;;0.40;0.40;;;12.90;99.90;;;;;;4986539;28;20531;-74
2022/09/02 03:23:32;;;;;;;0.38;0.38;;;13.00;99.90;;;;;;4989157;28;20471;-75
2022/09/02 03:25:58;;;;;;;0.60;0.60;;;13.00;99.90;;;;;;5004505;28;20565;-74
2022/09/02 03:28:23;;;;;;;1.30;1.20;;;13.10;99.90;;;;;;5005294;28;20030;-76
2022/09/02 03:30:49;;;;;;;0.60;0.60;;;13.00;99.90;;;;;;4987670;28;20390;-74
2022/09/02 03:33:15;;;;;;;1.40;1.30;;;13.10;99.90;;;;;;4988004;28;20427;-75
2022/09/02 03:35:43;;;;;;;1.00;1.00;;;13.10;99.90;;;;;;5003224;28;20030;-74
2022/09/02 03:38:10;;;;;;;0.93;0.93;;;13.10;99.90;;;;;;5007293;28;20045;-75
2022/09/02 03:40:35;;;;;;;0.90;0.90;;;13.10;99.90;;;;;;5007063;28;20041;-74
2022/09/02 03:43:01;;;;;;;1.50;1.33;;;13.10;99.90;;;;;;5001098;28;20054;-74
2022/09/02 03:45:28;;;;;;;1.83;1.40;;;13.10;99.90;;;;;;4986199;28;20038;-74
2022/09/02 03:47:54;;;;;;;1.88;1.73;;;13.20;99.90;;;;;;4985421;28;20652;-75
2022/09/02 03:50:24;;;;;;;1.80;1.70;;;13.20;99.90;;;;;;4987544;28;20458;-74
2022/09/02 03:52:50;;;;;;;3.70;1.13;;;13.20;99.90;;;;;;4987201;28;20276;-75
2022/09/02 03:55:17;;;;;;;4.40;3.57;;;13.20;99.90;;;;;;5002859;28;20037;-74
2022/09/02 03:57:44;;;;;;;5.43;1.48;;;13.20;99.90;;;;;;5005218;28;20072;-74
2022/09/02 04:00:12;;;;;;;2.22;2.10;;;13.10;99.90;;;;;;4987638;28;20037;-76
2022/09/02 04:02:37;;;;;;;5.25;3.95;;;13.00;99.90;;;;;;4986019;28;20486;-75
2022/09/02 04:05:03;;;;;;;7.40;3.90;;;13.00;99.90;;;;;;5000050;28;20026;-75
2022/09/02 04:07:29;;;;;;;11.43;5.43;;;12.90;99.90;;;;;;5005399;28;20477;-75
2022/09/02 04:09:55;;;;;;;14.87;3.60;;;13.00;99.90;;;;;;5006994;28;20037;-75
2022/09/02 04:12:21;;;;;;;3.90;3.60;;;13.00;99.90;;;;;;5002714;28;20107;-75
2022/09/02 04:14:47;;;;;;;1.33;1.23;;;13.00;99.90;;;;;;4986100;28;20048;-75
2022/09/02 04:17:12;;;;;;;4.23;3.33;;;13.10;99.90;;;;;;4987274;28;20105;-75
2022/09/02 04:19:39;;;;;;;7.23;4.10;;;13.10;99.90;;;;;;4985950;28;20035;-74
2022/09/02 04:22:06;;;;;;;4.28;3.03;;;13.20;99.90;;;;;;4987146;28;20015;-75
2022/09/02 04:24:31;;;;;;;8.32;3.22;;;13.20;99.90;;;;;;5001569;28;20554;-75
2022/09/02 04:26:57;;;;;;;5.00;4.33;;;13.20;99.90;;;;;;5006178;28;20109;-75
2022/09/02 04:29:23;;;;;;;21.13;5.90;;;13.30;99.90;;;;;;4989829;28;20035;-75
2022/09/02 04:31:49;;;;;;;6.93;5.17;;;13.30;99.90;;;;;;4985598;28;20057;-76
2022/09/02 04:34:14;;;;;;;3.90;3.57;;;13.40;99.90;;;;;;4986330;28;20030;-75
2022/09/02 04:36:40;;;;;;;4.30;2.43;;;13.80;99.90;;;;;;4987639;28;20029;-75
2022/09/02 04:39:08;;;;;;;4.73;4.27;;;13.60;99.90;;;;;;4987288;28;20030;-76
2022/09/02 04:41:34;;;;;;;4.60;4.13;;;13.60;99.90;;;;;;4986896;28;20099;-75
2022/09/02 04:44:01;;;;;;;5.32;4.93;;;13.70;99.90;;;;;;4988121;28;20035;-75
2022/09/02 04:46:27;;;;;;;5.35;4.78;;;13.80;99.90;;;;;;4987025;28;20088;-75
2022/09/02 04:48:54;;;;;;;5.65;5.15;;;13.90;99.90;;;;;;4985678;28;20045;-75
2022/09/02 04:51:23;;;;;;;5.70;4.90;;;14.00;99.90;;;;;;4986894;28;20324;-70
2022/09/02 04:53:51;;;;;;;6.93;6.28;;;14.10;99.90;;;;;;5001891;28;20037;-68
2022/09/02 04:56:20;;;;;;;7.07;6.40;;;14.20;99.90;;;;;;5007445;28;20030;-69
2022/09/02 04:58:46;;;;;;;4.57;3.38;;;14.20;99.90;;;;;;4993254;28;20111;-68
2022/09/02 05:01:14;;;;;;;11.43;8.13;;;14.30;99.90;;;;;;4990814;28;20074;-69
2022/09/02 05:03:41;;;;;;;7.35;6.75;;;14.40;99.90;;;;;;4999477;28;20038;-69
2022/09/02 05:06:09;;;;;;;4.45;4.05;;;14.40;99.90;;;;;;5010547;28;20421;-69
2022/09/02 05:08:35;;;;;;;11.10;7.97;;;14.40;99.90;;;;;;5009045;28;20046;-69
2022/09/02 05:11:09;;;;;;;11.67;6.30;;;14.50;99.90;;;;;;5008733;28;20029;-69
2022/09/02 05:13:35;;;;;;;8.52;7.70;;;14.50;99.90;;;;;;4970885;28;20488;-70
2022/09/02 05:16:01;;;;;;;9.70;5.47;;;14.50;99.90;;;;;;4969458;28;20027;-69
2022/09/02 05:18:27;;;;;;;11.13;7.15;;;14.50;99.90;;;;;;4971042;28;20039;-68
2022/09/02 05:20:53;;;;;;;5.17;4.67;;;14.60;99.90;;;;;;4970706;28;20045;-70
2022/09/02 05:23:18;;;;;;;3.20;2.90;;;14.70;99.90;;;;;;4998389;28;20034;-68
2022/09/02 05:25:44;;;;;;;4.57;3.73;;;14.70;99.90;;;;;;5009936;28;20385;-69
2022/09/02 05:28:10;;;;;;;4.40;3.87;;;14.80;99.90;;;;;;4993117;28;20042;-68
2022/09/02 05:30:37;;;;;;;9.07;7.13;;;14.90;99.90;;;;;;4988596;28;20031;-69
2022/09/02 05:33:04;;;;;;;7.22;4.10;;;14.90;99.90;;;;;;4998185;28;20037;-69
2022/09/02 05:35:30;;;;;;;7.88;2.75;;;15.00;99.90;;;;;;5009326;28;20026;-70
2022/09/02 05:37:56;;;;;;;2.27;2.10;;;15.00;99.90;;;;;;5009782;28;20412;-69
2022/09/02 05:40:21;;;;;;;3.28;2.97;;;15.10;99.90;;;;;;5009705;28;20075;-69
2022/09/02 05:42:47;;;;;;;4.23;3.83;;;15.20;99.90;;;;;;5007040;28;20096;-69
2022/09/02 05:45:13;;;;;;;28.13;5.00;;;15.20;99.90;;;;;;5009399;28;20083;-69
2022/09/02 05:47:39;;;;;;;7.63;3.53;;;15.40;99.90;;;;;;5007496;28;20125;-69
2022/09/02 05:50:06;;;;;;;4.80;4.15;;;15.40;99.90;;;;;;5009197;28;20014;-69
2022/09/02 05:52:32;;;;;;;8.85;3.40;;;15.50;99.90;;;;;;4996314;28;20031;-68
2022/09/02 05:54:59;;;;;;;5.93;3.60;;;15.50;99.90;;;;;;5004259;28;20534;-70
2022/09/02 05:57:25;;;;;;;;;;;15.60;99.90;;;;;;4996715;28;20264;-69
2022/09/02 05:59:55;;;;;;;3.80;2.72;;;15.60;99.90;;;;;;4988202;28;19910;-69
2022/09/02 06:02:22;;;;;;;3.22;2.95;;;15.60;99.90;;;;;;4990884;28;20101;-69
2022/09/02 06:04:51;;;;;;;3.38;2.60;;;15.50;99.90;;;;;;4989624;28;20045;-70
2022/09/02 06:07:19;;;;;;;2.80;2.40;;;15.60;99.90;;;;;;4987827;28;20030;-70
2022/09/02 06:09:44;;;;;;;13.77;3.78;;;15.60;99.90;;;;;;4989358;28;20039;-70
2022/09/02 06:12:12;;;;;;;4.10;3.77;;;15.60;99.90;;;;;;5004550;28;20037;-69
2022/09/02 06:14:38;;;;;;;2.78;2.58;;;15.60;99.90;;;;;;5009065;28;20041;-70
2022/09/02 06:17:05;;;;;;;6.43;4.87;;;15.60;99.90;;;;;;5007470;28;20026;-68
2022/09/02 06:19:31;;;;;;;;;;;15.60;99.90;;;;;;5009507;28;20274;-69
2022/09/02 06:21:58;;;;;;;6.53;3.15;;;15.60;99.90;;;;;;5006463;28;20386;-69
2022/09/02 06:24:25;;;;;;;8.52;4.30;;;15.80;99.90;;;;;;5006035;28;20025;-69
2022/09/02 06:26:52;;;;;;;2.92;2.72;;;15.90;99.90;;;;;;4995997;28;20492;-70
2022/09/02 06:29:18;;;;;;;1.95;1.83;;;16.00;99.90;;;;;;5008762;28;20048;-68
2022/09/02 06:31:46;;;;;;;11.45;2.42;;;16.10;99.90;;;;;;5008667;28;20097;-69
2022/09/02 06:34:15;;;;;;;1.33;1.25;;;16.10;99.90;;;;;;5007150;28;20067;-69
2022/09/02 06:36:42;;;;;;;3.70;2.83;;;16.20;99.90;;;;;;5007617;28;20381;-69
2022/09/02 06:39:11;;;;;;;8.63;2.47;;;16.40;99.90;;;;;;5002553;28;20079;-69
2022/09/02 06:41:38;;;;;;;6.38;4.45;;;16.50;99.90;;;;;;5008241;28;20392;-69
2022/09/02 06:44:04;;;;;;;2.15;1.98;;;16.50;99.90;;;;;;5007478;28;20133;-69
2022/09/02 06:46:34;;;;;;;3.45;3.15;;;16.60;99.90;;;;;;5008131;28;20496;-69
2022/09/02 06:49:02;;;;;;;3.20;1.73;;;16.70;99.90;;;;;;5007352;28;20565;-69
2022/09/02 06:51:34;;;;;;;6.95;3.03;;;16.80;99.90;;;;;;5008317;28;20026;-69
2022/09/02 06:54:01;;;;;;;1.55;1.45;;;16.90;99.90;;;;;;5006502;28;20034;-69
2022/09/02 06:56:26;;;;;;;3.03;2.70;;;16.70;99.90;;;;;;5008364;28;20018;-69
2022/09/02 06:58:52;;;;;;;3.33;2.93;;;16.80;99.90;;;;;;5008550;28;20537;-70
2022/09/02 07:01:24;;;;;;;1.30;1.20;;;16.90;99.90;;;;;;5008358;28;20026;-69
2022/09/02 07:06:37;;;;;;;1.88;1.50;;;17.00;99.90;;;;;;4986578;28;20444;-68
2022/09/02 07:09:05;;;;;;;0.50;0.50;;;17.10;99.90;;;;;;4988215;28;20047;-70
2022/09/02 07:11:30;;;;;;;4.22;1.20;;;17.20;99.90;;;;;;4989258;28;20470;-69
2022/09/02 07:14:00;;;;;;;2.47;2.00;;;17.10;99.90;;;;;;5004890;28;20044;-69
2022/09/02 07:16:30;;;;;;;0.75;0.75;;;17.10;99.90;;;;;;4992545;28;20023;-69
2022/09/02 07:18:56;;;;;;;0.50;0.50;;;17.20;99.90;;;;;;4987445;28;20037;-71
2022/09/02 07:21:23;;;;;;;0.30;0.30;;;17.20;99.90;;;;;;4995626;28;20492;-67
2022/09/02 07:23:48;;;;;;;2.20;1.00;;;17.30;99.90;;;;;;4997720;28;20118;-68
2022/09/02 07:26:15;;;;;;;0.60;0.60;;;17.40;99.90;;;;;;4987138;28;20470;-70
2022/09/02 07:28:42;;;;;;;1.02;1.02;;;17.50;99.90;;;;;;4985824;28;20087;-69
2022/09/02 07:31:11;;;;;;;0.77;0.77;;;17.50;99.90;;;;;;4994671;28;20444;-68
2022/09/02 07:33:38;;;;;;;0.73;0.73;;;17.50;99.90;;;;;;5007151;28;20177;-68
2022/09/02 07:36:04;;;;;;;1.50;1.40;;;17.50;99.90;;;;;;4988568;28;20369;-67
2022/09/02 07:38:31;;;;;;;0.50;0.50;;;17.60;99.90;;;;;;4984473;28;20050;-68
2022/09/02 07:40:58;;;;;;;0.55;0.55;;;17.70;99.90;;;;;;4977237;28;20027;-69
2022/09/02 07:43:25;;;;;;;3.55;2.17;;;17.80;99.90;;;;;;4985738;28;20050;-68
2022/09/02 07:45:52;;;;;;;;;;;17.80;99.90;;;;;;5002384;28;20124;-68
2022/09/02 07:48:18;;;;;;;1.45;1.20;;;17.80;99.90;;;;;;4986131;28;19977;-68
2022/09/02 07:50:44;;;;;;;1.37;1.27;;;17.70;99.90;;;;;;4983041;28;20031;-67
2022/09/02 07:53:12;;;;;;;1.90;1.80;;;18.00;99.90;;;;;;4976863;28;20091;-69
2022/09/02 07:55:39;;;;;;;1.73;1.60;;;18.10;99.90;;;;;;4980503;28;20470;-68
2022/09/02 07:58:05;;;;;;;1.83;1.70;;;18.30;99.70;;;;;;4978241;28;20023;-69
2022/09/02 08:00:32;;;;;;;0.87;0.87;;;18.30;98.80;;;;;;4983349;28;20037;-69
2022/09/02 08:02:59;;;;;;;1.05;1.02;;;18.20;98.80;;;;;;4971760;28;20039;-68
2022/09/02 08:05:25;;;;;;;1.00;1.00;;;18.20;99.70;;;;;;4974345;28;20126;-68
2022/09/02 08:07:51;;;;;;;1.88;1.75;;;18.20;99.40;;;;;;4981055;28;20125;-68
2022/09/02 08:10:19;;;;;;;2.43;2.23;;;18.20;99.00;;;;;;4981827;28;20282;-68
2022/09/02 08:12:45;;;;;;;0.65;0.65;;;18.10;99.00;;;;;;4973147;28;20049;-70
2022/09/02 08:15:11;;;;;;;2.13;1.83;;;18.30;99.10;;;;;;4986624;28;20152;-69
2022/09/02 08:17:40;;;;;;;3.00;1.65;;;18.40;98.60;;;;;;4973688;28;20205;-69
2022/09/02 08:20:08;;;;;;;0.63;0.63;;;18.40;98.30;;;;;;4976244;28;20080;-68
2022/09/02 08:22:34;;;;;;;1.95;1.55;;;18.30;98.40;;;;;;4969029;28;20129;-69
2022/09/02 08:25:00;;;;;;;0.60;0.60;;;18.30;98.40;;;;;;4979061;28;20050;-68
2022/09/02 08:27:26;;;;;;;2.58;2.13;;;18.40;98.00;;;;;;4974084;28;20130;-69
2022/09/02 08:29:52;;;;;;;0.33;0.33;;;18.50;97.30;;;;;;4982867;28;20385;-68
2022/09/02 08:32:18;;;;;;;0.30;0.30;;;18.80;96.40;;;;;;4978412;28;20145;-67
2022/09/02 08:34:44;;;;;;;2.40;1.97;;;19.00;96.10;;;;;;4987495;28;20681;-68
2022/09/02 08:37:10;;;;;;;1.33;1.23;;;19.20;95.00;;;;;;4969392;28;20287;-70
2022/09/02 08:39:37;;;;;;;0.30;0.30;;;19.20;94.60;;;;;;4987592;28;20304;-69
2022/09/02 08:42:23;;;;;;;0.88;0.85;;;19.30;94.10;;;;;;4982227;28;20039;-69
2022/09/02 08:44:54;;;;;;;0.65;0.65;;;19.30;94.20;;;;;;4985107;28;20434;-69
2022/09/02 08:47:28;;;;;;;0.70;0.70;;;19.40;94.30;;;;;;5022104;28;20099;-69
2022/09/02 08:49:58;;;;;;;0.50;0.50;;;19.80;93.30;;;;;;4982249;28;20031;-68
2022/09/02 08:52:41;;;;;;;0.47;0.47;;;20.10;92.80;;;;;;4973401;28;20025;-69
2022/09/02 08:55:18;;;;;;;1.48;1.38;;;20.10;92.10;;;;;;4988364;28;20048;-69
2022/09/02 08:57:45;;;;;;;0.30;0.30;;;19.90;92.00;;;;;;5002240;28;20537;-66
2022/09/02 09:00:10;;;;;;;;;;;19.90;92.00;;;;;;4989518;28;20264;-65
2022/09/02 09:03:07;;;;;;;1.38;1.15;;;19.80;91.90;;;;;;4978476;28;19978;-66
2022/09/02 09:05:49;;;;;;;1.35;1.02;;;20.00;91.60;;;;;;4999576;28;20042;-65
2022/09/02 09:08:26;;;;;;;0.30;0.30;;;20.20;91.30;;;;;;5031475;28;20407;-64
2022/09/02 09:11:17;;;;;;;0.40;0.40;;;20.30;90.70;;;;;;4989722;28;20033;-65
2022/09/02 09:13:58;;;;;;;1.25;1.02;;;20.50;90.20;;;;;;4982797;28;20045;-64
2022/09/02 09:16:56;;;;;;;0.55;0.55;;;20.80;89.50;;;;;;5046925;28;20169;-67
2022/09/02 09:19:47;;;;;;;2.00;1.42;;;21.00;86.50;;;;;;4992303;28;20052;-65
2022/09/02 09:22:17;;;;;;;0.35;0.35;;;20.50;87.00;;;;;;4969236;28;20070;-65
2022/09/02 09:24:45;;;;;;;0.30;0.30;;;20.30;86.50;;;;;;4989555;28;20091;-66
2022/09/02 09:27:14;;;;;;;0.40;0.40;;;20.30;87.30;;;;;;5034919;28;20038;-66
2022/09/02 09:29:40;;;;;;;0.30;0.30;;;20.50;85.80;;;;;;4995149;28;20382;-65
2022/09/02 09:32:14;;;;;;;0.30;0.30;;;20.70;85.90;;;;;;5058893;28;20083;-65
2022/09/02 09:34:52;;;;;;;0.45;0.45;;;20.80;84.40;;;;;;4996023;28;20276;-66
2022/09/02 09:37:33;;;;;;;0.20;0.20;;;20.70;83.70;;;;;;4988935;28;20034;-65
2022/09/02 09:39:59;;;;;;;0.30;0.30;;;20.70;85.20;;;;;;4979545;28;20039;-66
2022/09/02 09:42:36;;;;;;;0.60;0.60;;;20.60;84.20;;;;;;4993957;28;20057;-65
2022/09/02 09:45:26;;;;;;;0.30;0.30;;;20.60;83.80;;;;;;4998086;28;20027;-65
2022/09/02 09:48:30;;;;;;;0.32;0.32;;;20.70;83.40;;;;;;5028067;28;20364;-65
2022/09/02 09:50:56;;;;;;;0.30;0.30;;;20.40;84.00;;;;;;4986114;28;20445;-66
2022/09/02 09:53:24;;;;;;;3.73;1.00;;;20.40;84.50;;;;;;4982011;28;20026;-66
2022/09/02 09:56:04;;;;;;;0.55;0.50;;;20.50;84.50;;;;;;4984328;28;20061;-65
2022/09/02 09:58:38;;;;;;;0.30;0.30;;;20.30;84.10;;;;;;4986714;28;20042;-61
2022/09/02 10:01:13;;;;;;;0.40;0.40;;;20.30;85.10;;;;;;4984607;28;20039;-65
2022/09/02 10:03:51;;;;;;;0.68;0.68;;;20.40;85.00;;;;;;4979244;28;20123;-66
2022/09/02 10:06:23;;;;;;;2.90;1.00;;;20.70;85.20;;;;;;4971390;28;20092;-64
2022/09/02 10:08:56;;;;;;;0.38;0.38;;;21.10;82.30;;;;;;4978266;28;20029;-65
2022/09/02 10:11:26;;;;;;;0.40;0.40;;;21.20;81.30;;;;;;4976740;28;20463;-65
2022/09/02 10:13:59;;;;;;;0.47;0.47;;;21.30;81.10;;;;;;4979066;28;20524;-66
2022/09/02 10:16:47;;;;;;;0.30;0.30;;;21.60;80.90;;;;;;4986693;28;20066;-66
2022/09/02 10:19:33;;;;;;;0.38;0.38;;;21.70;81.10;;;;;;4976550;28;20034;-67
2022/09/02 10:22:07;;;;;;;2.85;1.25;;;21.80;81.20;;;;;;4973430;28;20031;-66
2022/09/02 10:24:58;;;;;;;0.85;0.70;;;22.10;80.70;;;;;;4983697;28;20030;-66
2022/09/02 10:27:51;;;;;;;0.50;0.50;;;22.50;78.80;;;;;;4984263;28;20109;-67
2022/09/02 10:30:21;;;;;;;0.65;0.65;;;22.70;78.80;;;;;;5005069;28;20050;-68
2022/09/02 10:32:56;;;;;;;0.57;0.52;;;23.00;77.60;;;;;;4986769;28;20038;-67
2022/09/02 10:35:26;;;;;;;0.43;0.43;;;23.10;77.80;;;;;;4986488;28;20035;-67
2022/09/02 10:37:54;;;;;;;0.90;0.90;;;23.00;76.50;;;;;;4988315;28;20465;-67
2022/09/02 10:40:33;;;;;;;0.30;0.30;;;23.00;76.40;;;;;;4988199;28;20068;-64
2022/09/02 10:43:06;;;;;;;0.32;0.32;;;23.10;75.60;;;;;;4988768;28;20473;-65
2022/09/02 10:45:47;;;;;;;0.40;0.40;;;23.60;75.40;;;;;;4987892;28;20035;-65
2022/09/02 10:48:12;;;;;;;0.30;0.30;;;23.80;73.30;;;;;;4988541;28;20045;-64
2022/09/02 10:50:42;;;;;;;1.60;1.50;;;23.20;73.60;;;;;;4988569;28;20034;-65
2022/09/02 10:53:15;;;;;;;3.28;1.85;;;22.70;75.80;;;;;;4988303;28;20369;-64
2022/09/02 10:55:58;;;;;;;2.22;1.25;;;22.40;76.00;;;;;;4989103;28;20504;-65
2022/09/02 10:58:40;;;;;;;0.60;0.60;;;22.40;75.50;;;;;;4988965;28;20031;-65
2022/09/02 11:01:10;;;;;;;0.60;0.60;;;22.40;75.50;;;;;;4987267;28;20048;-65
2022/09/02 11:03:45;;;;;;;1.20;1.10;;;22.40;75.60;;;;;;4996919;28;20026;-65
2022/09/02 11:06:28;;;;;;;0.65;0.65;;;22.70;75.30;;;;;;4990550;28;20117;-66
2022/09/02 11:09:06;;;;;;;1.52;0.65;;;23.10;74.70;;;;;;4989507;28;20034;-65
2022/09/02 11:11:41;;;;;;;0.55;0.40;;;23.00;73.60;;;;;;4987516;28;20022;-64
2022/09/02 11:14:47;;;;;;;1.25;1.15;;;23.10;73.20;;;;;;4988556;28;20030;-65
2022/09/02 11:17:45;;;;;;;1.58;0.88;;;23.20;73.30;;;;;;4988829;28;20030;-65
2022/09/02 11:20:21;;;;;;;0.47;0.47;;;23.30;73.10;;;;;;4968743;28;20498;-65
2022/09/02 11:23:03;;;;;;;2.50;1.00;;;23.50;72.80;;;;;;4969129;28;20262;-66
2022/09/02 11:25:40;;;;;;;0.70;0.70;;;23.10;72.80;;;;;;4987459;28;20042;-65
2022/09/02 11:28:19;;;;;;;0.55;0.52;;;22.90;74.00;;;;;;4988653;28;20133;-65
2022/09/02 11:30:52;;;;;;;0.40;0.40;;;23.00;73.80;;;;;;4990653;28;20045;-66
2022/09/02 11:33:45;;;;;;;1.55;1.30;;;23.10;72.90;;;;;;4987620;28;20038;-66
2022/09/02 11:36:11;;;;;;;0.85;0.68;;;23.20;72.30;;;;;;4988115;28;20034;-66
2022/09/02 11:38:50;;;;;;;0.65;0.65;;;23.40;71.50;;;;;;4987464;28;20117;-66
2022/09/02 11:41:18;;;;;;;0.30;0.30;;;23.60;70.90;;;;;;5002624;28;20141;-65
2022/09/02 11:44:11;;;;;;;1.17;1.08;;;23.50;71.10;;;;;;5007910;28;20045;-65
2022/09/02 11:46:57;;;;;;;1.27;0.90;;;23.00;71.00;;;;;;4995063;28;20034;-66
2022/09/02 11:49:44;;;;;;;0.50;0.50;;;22.40;72.10;;;;;;4988569;28;20446;-67
2022/09/02 11:52:42;;;;;;;0.52;0.52;;;22.20;72.40;;;;;;4988264;28;20402;-65
2022/09/02 11:55:20;;;;;;;2.88;0.82;;;21.90;72.70;;;;;;5042596;28;20383;-64
2022/09/02 11:57:56;;;;;;;0.60;0.60;;;21.70;74.20;;;;;;4993681;28;20104;-66
2022/09/02 12:00:27;;;;;;;2.00;1.67;;;21.30;74.90;;;;;;4989283;28;20478;-65
2022/09/02 12:03:05;;;;;;;2.53;2.33;;;21.00;75.50;;;;;;4988332;28;20026;-66
2022/09/02 12:05:31;;;;;;;0.93;0.88;;;20.70;76.20;;;;;;4988755;28;20550;-66
2022/09/02 12:07:59;;;;;;;23.70;1.63;;;20.70;76.50;;;;;;4988320;28;20042;-66
2022/09/02 12:10:44;;;;;;;1.33;1.17;;;20.40;77.40;;;;;;4991167;28;20022;-66
2022/09/02 12:13:30;;;;;;;0.60;0.60;;;20.60;79.00;;;;;;4990587;28;20181;-66
2022/09/02 12:16:14;;;;;;;0.50;0.50;;;20.70;77.40;;;;;;4990868;28;20100;-66
2022/09/02 12:18:45;;;;;;;1.60;1.50;;;20.80;77.10;;;;;;4990006;28;20080;-66
2022/09/02 12:21:17;;;;;;;1.10;0.95;;;20.70;77.30;;;;;;4979219;28;20033;-66
2022/09/02 12:23:55;;;;;;;0.73;0.73;;;20.70;76.80;;;;;;4990749;28;20041;-66
2022/09/02 12:26:52;;;;;;;1.15;1.00;;;20.70;77.40;;;;;;4990033;28;20062;-66
2022/09/02 12:29:17;;;;;;;0.50;0.50;;;20.70;77.40;;;;;;4999760;28;20069;-66
2022/09/02 12:31:48;;;;;;;0.53;0.53;;;20.70;77.80;;;;;;4996168;28;20069;-66
2022/09/02 12:34:19;;;;;;;1.48;1.25;;;20.60;76.70;;;;;;4990712;28;20042;-65
2022/09/02 12:36:50;;;;;;;1.20;1.13;;;20.50;76.40;;;;;;4989768;28;20468;-66
2022/09/02 12:39:22;;;;;;;1.35;1.25;;;20.50;77.40;;;;;;4991892;28;20031;-65
2022/09/02 12:42:11;;;;;;;7.93;2.20;;;20.50;77.60;;;;;;4996077;28;20145;-65
2022/09/02 12:45:11;;;;;;;1.10;1.02;;;20.40;77.20;;;;;;4988756;28;20034;-65
2022/09/02 12:47:58;;;;;;;2.50;1.42;;;20.30;77.90;;;;;;4972337;28;20087;-66
2022/09/02 12:50:31;;;;;;;1.30;1.05;;;20.30;78.50;;;;;;4973692;28;20026;-65
2022/09/02 12:53:30;;;;;;;0.55;0.55;;;20.30;78.30;;;;;;4991772;28;20038;-64
2022/09/02 12:56:06;;;;;;;0.90;0.88;;;20.20;78.30;;;;;;4990509;28;20484;-65
2022/09/02 12:58:38;;;;;;;1.45;1.33;;;20.10;77.80;;;;;;4989645;28;20034;-65
2022/09/02 13:01:24;;;;;;;2.67;2.47;;;20.20;77.20;;;;;;4989506;28;20026;-66
2022/09/02 13:04:25;;;;;;;0.60;0.60;;;20.30;76.80;;;;;;4990275;28;20470;-66
2022/09/02 13:07:09;;;;;;;5.88;1.83;;;20.40;76.70;;;;;;4989758;28;20026;-65